createdAt,value
2023-05-13T00:01:38.637Z,8.60
2023-05-13T00:04:07.038Z,8.23
2023-05-13T00:06:35.329Z,8.67
2023-05-13T00:09:05.724Z,9.60
2023-05-13T00:11:33.848Z,8.30
2023-05-13T00:14:01.873Z,8.73
2023-05-13T00:16:30.021Z,8.57
2023-05-13T00:18:58.092Z,8.13
2023-05-13T00:21:26.285Z,7.83
2023-05-13T00:23:54.385Z,7.97
2023-05-13T00:26:23.817Z,8.97
2023-05-13T00:28:51.914Z,8.10
2023-05-13T00:31:20.683Z,8.07
2023-05-13T00:33:48.809Z,7.97
2023-05-13T00:36:16.891Z,8.70
2023-05-13T00:38:45.039Z,8.27
2023-05-13T00:41:13.510Z,8.60
2023-05-13T00:43:43.367Z,8.70
2023-05-13T00:46:11.385Z,9.20
2023-05-13T00:48:39.899Z,8.77
2023-05-13T00:51:08.077Z,7.93
2023-05-13T00:53:36.306Z,8.30
2023-05-13T00:56:04.453Z,7.40
2023-05-13T00:58:32.662Z,7.93
2023-05-13T01:01:08.143Z,7.30
2023-05-13T01:03:45.535Z,7.20
2023-05-13T01:06:16.676Z,7.03
2023-05-13T01:08:50.219Z,7.37
2023-05-13T01:11:23.422Z,6.37
2023-05-13T01:13:56.521Z,6.97
2023-05-13T01:16:30.723Z,7.10
2023-05-13T01:19:02.219Z,8.00
2023-05-13T01:21:36.635Z,7.67
2023-05-13T01:24:04.978Z,6.87
2023-05-13T01:26:33.114Z,7.10
2023-05-13T01:29:01.270Z,6.90
2023-05-13T01:31:30.533Z,6.10
2023-05-13T01:33:58.943Z,6.93
2023-05-13T01:36:27.240Z,6.80
2023-05-13T01:38:57.446Z,6.27
2023-05-13T01:41:28.376Z,6.63
2023-05-13T01:43:56.548Z,6.97
2023-05-13T01:46:24.797Z,6.87
2023-05-13T01:48:53.039Z,7.50
2023-05-13T01:51:21.243Z,7.30
2023-05-13T01:53:49.361Z,7.30
2023-05-13T01:56:19.151Z,7.83
2023-05-13T01:58:49.519Z,8.00
2023-05-13T02:01:18.113Z,7.10
2023-05-13T02:03:47.220Z,7.27
2023-05-13T02:06:15.509Z,7.23
2023-05-13T02:08:43.560Z,8.03
2023-05-13T02:11:11.900Z,7.83
2023-05-13T02:13:41.415Z,8.27
2023-05-13T02:16:09.557Z,7.90
2023-05-13T02:18:37.934Z,7.47
2023-05-13T02:21:07.217Z,7.37
2023-05-13T02:23:35.371Z,7.70
2023-05-13T02:26:03.477Z,7.57
2023-05-13T02:28:31.631Z,7.43
2023-05-13T02:31:00.981Z,8.20
2023-05-13T02:33:29.137Z,7.87
2023-05-13T02:35:57.193Z,8.27
2023-05-13T02:38:25.348Z,8.20
2023-05-13T02:40:53.551Z,8.43
2023-05-13T02:43:23.509Z,8.10
2023-05-13T02:45:57.393Z,8.40
2023-05-13T02:48:27.211Z,8.40
2023-05-13T02:50:55.265Z,8.93
2023-05-13T02:53:24.104Z,8.67
2023-05-13T02:55:59.922Z,8.90
2023-05-13T02:58:28.176Z,8.60
2023-05-13T03:01:00.000Z,8.77
2023-05-13T03:03:32.444Z,9.13
2023-05-13T03:06:00.891Z,9.47
2023-05-13T03:08:28.992Z,9.27
2023-05-13T03:10:57.052Z,8.53
2023-05-13T03:13:25.156Z,9.80
2023-05-13T03:15:53.238Z,9.17
2023-05-13T03:18:21.429Z,9.27
2023-05-13T03:20:51.329Z,8.93
2023-05-13T03:23:19.880Z,8.90
2023-05-13T03:25:50.078Z,9.10
2023-05-13T03:28:18.779Z,9.80
2023-05-13T03:30:48.057Z,9.60
2023-05-13T03:33:19.663Z,10.63
2023-05-13T03:35:49.702Z,10.23
2023-05-13T03:38:22.302Z,9.47
2023-05-13T03:40:51.788Z,10.47
2023-05-13T03:43:19.887Z,9.80
2023-05-13T03:45:54.390Z,10.33
2023-05-13T03:48:24.267Z,10.67
2023-05-13T03:50:53.082Z,10.87
2023-05-13T03:53:22.891Z,10.90
2023-05-13T03:55:51.288Z,11.73
2023-05-13T03:58:19.367Z,11.73
2023-05-13T04:00:47.626Z,10.80
2023-05-13T04:03:17.266Z,12.00
2023-05-13T04:05:47.385Z,12.83
2023-05-13T04:08:15.761Z,12.57
2023-05-13T04:10:45.975Z,11.83
2023-05-13T04:13:14.035Z,12.53
2023-05-13T04:15:42.085Z,12.67
2023-05-13T04:18:10.197Z,13.40
2023-05-13T04:20:39.548Z,12.40
2023-05-13T04:23:07.636Z,11.90
2023-05-13T04:25:36.825Z,12.27
2023-05-13T04:28:07.153Z,12.83
2023-05-13T04:30:39.810Z,12.27
2023-05-13T04:33:08.237Z,12.37
2023-05-13T04:35:37.854Z,12.43
2023-05-13T04:38:06.362Z,12.03
2023-05-13T04:40:34.480Z,12.20
2023-05-13T04:43:09.059Z,14.07
2023-05-13T04:45:44.164Z,13.43
2023-05-13T04:48:14.715Z,12.97
2023-05-13T04:50:46.456Z,13.20
2023-05-13T04:53:16.043Z,13.03
2023-05-13T04:55:45.457Z,12.60
2023-05-13T04:58:14.941Z,13.27
2023-05-13T05:00:45.739Z,12.33
2023-05-13T05:03:14.438Z,13.23
2023-05-13T05:05:42.867Z,12.97
2023-05-13T05:08:12.970Z,13.10
2023-05-13T05:10:48.095Z,12.40
2023-05-13T05:13:20.646Z,12.33
2023-05-13T05:15:49.045Z,12.27
2023-05-13T05:31:21.466Z,9.47
2023-05-13T05:33:48.552Z,10.30
2023-05-13T05:36:38.732Z,11.03
2023-05-13T05:39:09.813Z,11.40
2023-05-13T05:41:53.953Z,11.63
2023-05-13T05:44:23.558Z,11.93
2023-05-13T05:46:53.891Z,11.90
2023-05-13T05:49:22.141Z,13.37
2023-05-13T05:51:53.611Z,11.43
2023-05-13T05:54:24.446Z,12.40
2023-05-13T05:56:52.839Z,11.90
2023-05-13T06:02:20.469Z,14.33
2023-05-13T06:04:54.861Z,14.20
2023-05-13T06:07:28.921Z,16.53
2023-05-13T06:10:07.569Z,15.43
2023-05-13T06:13:02.469Z,15.57
2023-05-13T06:15:31.002Z,15.27
2023-05-13T06:18:01.647Z,14.33
2023-05-13T06:20:34.941Z,15.03
2023-05-13T06:23:03.233Z,14.73
2023-05-13T06:25:34.788Z,15.30
2023-05-13T06:28:15.805Z,16.83
2023-05-13T06:30:52.203Z,16.87
2023-05-13T06:33:31.109Z,16.83
2023-05-13T06:39:21.343Z,18.23
2023-05-13T06:41:50.387Z,17.70
2023-05-13T06:44:18.719Z,18.97
2023-05-13T06:47:16.231Z,20.77
2023-05-13T06:59:23.127Z,19.13
2023-05-13T07:02:11.444Z,19.70
2023-05-13T07:04:41.406Z,21.27
2023-05-13T07:08:11.087Z,18.93
2023-05-13T07:10:42.406Z,20.03
2023-05-13T07:13:11.147Z,19.30
2023-05-13T07:15:53.049Z,19.60
2023-05-13T07:18:21.249Z,20.47
2023-05-13T07:20:55.842Z,19.53
2023-05-13T07:23:23.974Z,19.17
2023-05-13T07:25:52.755Z,19.27
2023-05-13T07:28:21.921Z,18.97
2023-05-13T07:30:53.477Z,16.70
2023-05-13T07:33:21.884Z,17.07
2023-05-13T07:36:07.584Z,15.93
2023-05-13T07:38:35.628Z,17.67
2023-05-13T07:41:03.854Z,20.37
2023-05-13T07:43:39.262Z,20.40
2023-05-13T07:46:09.518Z,18.13
2023-05-13T07:48:37.713Z,19.37
2023-05-13T07:51:06.608Z,19.27
2023-05-13T07:53:37.326Z,18.53
2023-05-13T08:05:04.183Z,15.27
2023-05-13T08:20:45.577Z,11.37
2023-05-13T08:23:14.346Z,11.47
2023-05-13T08:25:42.861Z,11.10
2023-05-13T08:28:10.991Z,11.57
2023-05-13T08:30:40.758Z,12.27
2023-05-13T08:33:09.018Z,11.57
2023-05-13T08:35:38.731Z,11.27
2023-05-13T08:38:06.844Z,10.50
2023-05-13T08:40:35.011Z,9.30
2023-05-13T08:43:03.857Z,8.93
2023-05-13T08:45:32.697Z,8.67
2023-05-13T08:48:02.562Z,8.63
2023-05-13T08:50:31.457Z,8.40
2023-05-13T08:53:04.821Z,7.83
2023-05-13T08:55:33.859Z,7.50
2023-05-13T08:58:02.145Z,7.50
2023-05-13T09:00:30.486Z,6.57
2023-05-13T09:02:58.601Z,6.20
2023-05-13T09:05:26.894Z,6.60
2023-05-13T09:07:55.959Z,6.20
2023-05-13T09:10:25.789Z,5.57
2023-05-13T09:12:55.552Z,5.90
2023-05-13T09:15:25.445Z,5.70
2023-05-13T09:17:56.359Z,5.60
2023-05-13T09:20:25.524Z,6.60
2023-05-13T09:22:58.995Z,6.50
2023-05-13T09:25:29.618Z,5.57
2023-05-13T09:27:59.288Z,5.57
2023-05-13T09:30:28.266Z,5.57
2023-05-13T09:33:10.370Z,5.50
2023-05-13T09:35:39.410Z,6.37
2023-05-13T09:38:15.854Z,5.40
2023-05-13T09:40:52.871Z,5.00
2023-05-13T09:43:22.402Z,5.03
2023-05-13T09:45:54.077Z,5.70
2023-05-13T09:48:22.743Z,4.63
2023-05-13T09:50:52.437Z,4.40
2023-05-13T09:53:21.224Z,4.40
2023-05-13T09:55:51.743Z,4.60
2023-05-13T09:58:20.813Z,4.23
2023-05-13T10:00:49.553Z,4.70
2023-05-13T10:03:17.829Z,3.83
2023-05-13T10:05:47.080Z,3.83
2023-05-13T10:08:15.998Z,4.23
2023-05-13T10:10:46.041Z,4.00
2023-05-13T10:13:18.056Z,3.93
2023-05-13T10:15:51.356Z,4.03
2023-05-13T10:18:20.893Z,3.40
2023-05-13T10:20:53.257Z,3.77
2023-05-13T10:23:22.777Z,4.17
2023-05-13T10:25:55.991Z,3.13
2023-05-13T10:28:28.251Z,3.30
2023-05-13T10:30:57.382Z,3.40
2023-05-13T10:33:29.758Z,3.83
2023-05-13T10:36:08.319Z,3.90
2023-05-13T10:38:45.701Z,3.70
2023-05-13T10:41:28.311Z,3.70
2023-05-13T10:43:59.371Z,3.60
2023-05-13T10:46:28.780Z,3.87
2023-05-13T10:48:58.228Z,4.07
2023-05-13T10:51:27.980Z,3.63
2023-05-13T10:53:58.612Z,3.40
2023-05-13T10:56:28.986Z,3.47
2023-05-13T10:59:02.897Z,3.30
2023-05-13T11:01:32.448Z,2.10
2023-05-13T11:04:02.590Z,2.70
2023-05-13T11:06:35.234Z,2.27
2023-05-13T11:09:06.946Z,1.97
2023-05-13T11:11:36.988Z,1.97
2023-05-13T11:14:15.682Z,2.00
2023-05-13T11:16:47.749Z,2.60
2023-05-13T11:19:23.598Z,2.67
2023-05-13T11:21:54.325Z,2.80
2023-05-13T11:24:23.573Z,3.80
2023-05-13T11:26:53.573Z,3.03
2023-05-13T11:29:34.335Z,3.77
2023-05-13T11:32:03.969Z,4.43
2023-05-13T11:34:32.617Z,4.93
2023-05-13T11:37:09.432Z,4.70
2023-05-13T11:39:40.370Z,5.13
2023-05-13T11:42:14.601Z,5.43
2023-05-13T11:44:52.926Z,5.23
2023-05-13T11:47:27.554Z,5.90
2023-05-13T11:49:59.418Z,5.83
2023-05-13T11:52:32.674Z,6.87
2023-05-13T11:55:11.993Z,6.67
2023-05-13T11:57:42.643Z,5.47
2023-05-13T12:00:14.154Z,5.67
2023-05-13T12:02:44.154Z,5.40
2023-05-13T12:05:13.660Z,5.70
2023-05-13T12:07:42.584Z,5.40
2023-05-13T12:10:14.428Z,5.33
2023-05-13T12:12:55.213Z,4.90
2023-05-13T12:15:25.894Z,4.53
2023-05-13T12:17:58.235Z,4.50
2023-05-13T12:20:32.950Z,4.77
2023-05-13T12:23:04.754Z,4.63
2023-05-13T12:25:45.117Z,4.17
2023-05-13T12:28:24.367Z,5.27
2023-05-13T12:31:01.064Z,4.53
2023-05-13T12:33:30.933Z,4.70
2023-05-13T12:36:21.036Z,4.53
2023-05-13T12:39:00.841Z,4.70
2023-05-13T12:41:36.277Z,4.57
2023-05-13T12:44:06.424Z,4.77
2023-05-13T12:46:36.707Z,4.40
2023-05-13T12:49:06.178Z,4.53
2023-05-13T12:51:34.848Z,4.60
2023-05-13T12:54:03.055Z,4.40
2023-05-13T12:56:31.153Z,4.00
2023-05-13T12:59:02.785Z,4.37
2023-05-13T13:01:34.022Z,4.47
2023-05-13T13:04:03.827Z,3.70
2023-05-13T13:06:35.155Z,3.83
2023-05-13T13:09:03.607Z,4.47
2023-05-13T13:11:31.755Z,3.30
2023-05-13T13:14:00.006Z,3.27
2023-05-13T13:16:28.335Z,3.40
2023-05-13T13:19:01.845Z,3.13
2023-05-13T13:21:32.479Z,3.50
2023-05-13T13:24:01.115Z,3.30
2023-05-13T13:26:33.159Z,3.13
2023-05-13T13:29:01.326Z,3.30
2023-05-13T13:31:29.758Z,2.97
2023-05-13T13:34:04.061Z,3.00
2023-05-13T13:36:36.752Z,3.27
2023-05-13T13:39:05.044Z,2.90
2023-05-13T13:41:33.643Z,3.07
2023-05-13T13:44:01.933Z,2.87
2023-05-13T13:46:31.211Z,3.27
2023-05-13T13:49:00.876Z,3.23
2023-05-13T13:51:30.755Z,3.50
2023-05-13T13:54:04.951Z,2.40
2023-05-13T13:56:33.205Z,3.17
2023-05-13T13:59:01.259Z,3.10
2023-05-13T14:01:29.658Z,2.60
2023-05-13T14:04:11.523Z,3.10
2023-05-13T14:06:40.298Z,2.67
2023-05-13T14:09:10.831Z,2.97
2023-05-13T14:11:39.040Z,3.30
2023-05-13T14:14:07.194Z,2.67
2023-05-13T14:16:35.534Z,2.90
2023-05-13T14:19:04.072Z,3.50
2023-05-13T14:21:33.253Z,2.93
2023-05-13T14:24:01.361Z,3.03
2023-05-13T14:26:31.261Z,3.13
2023-05-13T14:28:59.510Z,3.67
2023-05-13T14:31:27.887Z,3.10
2023-05-13T14:33:55.990Z,3.87
2023-05-13T14:36:26.556Z,3.70
2023-05-13T14:38:54.607Z,3.53
2023-05-13T14:41:23.232Z,3.57
2023-05-13T14:43:52.633Z,3.27
2023-05-13T14:46:20.796Z,3.10
2023-05-13T14:48:48.972Z,3.63
2023-05-13T14:51:17.715Z,3.00
2023-05-13T14:53:45.959Z,2.57
2023-05-13T14:56:14.053Z,2.13
2023-05-13T14:58:42.531Z,2.40
2023-05-13T15:01:12.537Z,2.33
2023-05-13T15:03:43.427Z,2.33
2023-05-13T15:06:11.600Z,2.13
2023-05-13T15:08:39.779Z,2.47
2023-05-13T15:11:08.629Z,2.40
2023-05-13T15:13:39.963Z,2.70
2023-05-13T15:16:08.731Z,2.57
2023-05-13T15:18:38.671Z,3.33
2023-05-13T15:21:07.880Z,3.00
2023-05-13T15:23:36.230Z,3.57
2023-05-13T15:26:04.353Z,2.87
2023-05-13T15:28:32.617Z,3.10
2023-05-13T15:31:00.778Z,2.90
2023-05-13T15:33:28.940Z,2.67
2023-05-13T15:35:58.742Z,2.80
2023-05-13T15:38:26.995Z,2.77
2023-05-13T15:40:55.350Z,2.97
2023-05-13T15:43:23.451Z,2.50
2023-05-13T15:45:53.635Z,2.77
2023-05-13T15:48:22.079Z,2.70
2023-05-13T15:50:52.571Z,2.63
2023-05-13T15:53:22.161Z,2.83
2023-05-13T15:55:50.825Z,2.87
2023-05-13T15:58:18.995Z,2.97
2023-05-13T16:00:47.263Z,2.50
2023-05-13T16:03:17.049Z,3.50
2023-05-13T16:05:48.140Z,2.70
2023-05-13T16:08:16.365Z,3.10
2023-05-13T16:10:45.924Z,3.00
2023-05-13T16:13:14.286Z,3.40
2023-05-13T16:15:42.640Z,2.77
2023-05-13T16:18:10.828Z,2.90
2023-05-13T16:20:39.925Z,2.70
2023-05-13T16:23:08.119Z,2.60
2023-05-13T16:25:36.194Z,3.27
2023-05-13T16:28:06.042Z,3.03
2023-05-13T16:30:34.523Z,2.70
2023-05-13T16:33:02.816Z,2.80
2023-05-13T16:35:31.032Z,2.97
2023-05-13T16:37:59.189Z,3.20
2023-05-13T16:40:27.325Z,2.87
2023-05-13T16:42:58.786Z,2.93
2023-05-13T16:45:29.698Z,3.33
2023-05-13T16:47:57.876Z,3.10
2023-05-13T16:50:26.265Z,2.97
2023-05-13T16:52:54.615Z,3.30
2023-05-13T16:55:22.880Z,3.00
2023-05-13T16:57:51.151Z,3.13
2023-05-13T17:00:22.741Z,3.53
2023-05-13T17:02:55.640Z,3.33
2023-05-13T17:05:26.384Z,3.50
2023-05-13T17:07:54.526Z,3.60
2023-05-13T17:10:23.244Z,3.00
2023-05-13T17:12:55.340Z,3.40
2023-05-13T17:15:24.593Z,3.10
2023-05-13T17:17:54.479Z,3.53
2023-05-13T17:20:23.172Z,3.40
2023-05-13T17:22:51.554Z,3.70
2023-05-13T17:25:20.116Z,3.70
2023-05-13T17:27:48.342Z,3.80
2023-05-13T17:30:17.790Z,3.30
2023-05-13T17:32:48.853Z,3.67
2023-05-13T17:35:18.573Z,4.03
2023-05-13T17:37:46.799Z,3.57
2023-05-13T17:40:15.115Z,3.73
2023-05-13T17:42:43.218Z,3.87
2023-05-13T17:45:20.655Z,3.80
2023-05-13T17:47:48.874Z,3.63
2023-05-13T17:50:18.464Z,4.37
2023-05-13T17:52:47.125Z,4.20
2023-05-13T17:55:31.251Z,4.17
2023-05-13T17:58:01.887Z,4.67
2023-05-13T18:00:32.742Z,4.70
2023-05-13T18:03:00.820Z,5.37
2023-05-13T18:05:30.875Z,4.50
2023-05-13T18:08:00.134Z,4.70
2023-05-13T18:10:31.390Z,4.60
2023-05-13T18:12:59.468Z,4.50
2023-05-13T18:15:33.299Z,5.10
2023-05-13T18:18:03.505Z,5.57
2023-05-13T18:20:33.394Z,5.20
2023-05-13T18:23:01.539Z,5.07
2023-05-13T18:25:29.542Z,5.10
2023-05-13T18:27:57.533Z,4.93
2023-05-13T18:30:25.728Z,5.43
2023-05-13T18:32:54.427Z,5.73
2023-05-13T18:35:24.266Z,5.77
2023-05-13T18:37:53.748Z,5.27
2023-05-13T18:40:22.300Z,5.17
2023-05-13T18:42:50.675Z,5.53
2023-05-13T18:45:18.716Z,5.93
2023-05-13T18:47:46.897Z,5.17
2023-05-13T18:50:15.067Z,5.77
2023-05-13T18:52:43.084Z,5.37
2023-05-13T18:55:15.606Z,5.97
2023-05-13T18:57:43.595Z,5.67
2023-05-13T19:00:12.614Z,5.80
2023-05-13T19:02:41.072Z,5.50
2023-05-13T19:05:09.870Z,5.30
2023-05-13T19:07:38.181Z,5.57
2023-05-13T19:10:07.134Z,5.00
2023-05-13T19:12:36.540Z,5.73
2023-05-13T19:15:05.110Z,5.60
2023-05-13T19:17:33.263Z,6.03
2023-05-13T19:20:01.381Z,5.57
2023-05-13T19:22:29.564Z,5.47
2023-05-13T19:24:57.800Z,5.97
2023-05-13T19:27:26.257Z,5.47
2023-05-13T19:29:55.897Z,5.23
2023-05-13T19:32:23.969Z,6.03
2023-05-13T19:34:52.238Z,5.77
2023-05-13T19:37:20.387Z,5.73
2023-05-13T19:39:48.521Z,5.53
2023-05-13T19:42:16.724Z,5.13
2023-05-13T19:44:44.881Z,5.60
2023-05-13T19:47:14.436Z,5.40
2023-05-13T19:49:43.007Z,5.33
2023-05-13T19:52:11.094Z,5.93
2023-05-13T19:54:39.325Z,5.70
2023-05-13T19:57:07.749Z,5.77
2023-05-13T19:59:36.138Z,5.37
2023-05-13T20:02:04.549Z,5.43
2023-05-13T20:04:34.244Z,5.50
2023-05-13T20:07:02.385Z,6.40
2023-05-13T20:09:30.639Z,7.30
2023-05-13T20:12:03.841Z,9.00
2023-05-13T20:14:43.932Z,8.67
2023-05-13T20:17:17.999Z,8.37
2023-05-13T20:19:48.403Z,7.67
2023-05-13T20:22:17.411Z,8.10
2023-05-13T20:24:46.805Z,7.23
2023-05-13T20:27:15.253Z,6.93
2023-05-13T20:29:45.156Z,6.83
2023-05-13T20:32:13.503Z,6.53
2023-05-13T20:34:42.118Z,6.37
2023-05-13T20:37:11.680Z,6.50
2023-05-13T20:39:39.740Z,6.60
2023-05-13T20:42:08.092Z,6.50
2023-05-13T20:44:36.226Z,6.40
2023-05-13T20:47:05.177Z,6.80
2023-05-13T20:49:34.092Z,6.40
2023-05-13T20:52:03.418Z,6.67
2023-05-13T20:54:33.001Z,6.90
2023-05-13T20:57:02.990Z,6.90
2023-05-13T20:59:31.210Z,6.90
2023-05-13T21:01:59.445Z,7.77
2023-05-13T21:04:27.942Z,7.30
2023-05-13T21:06:56.052Z,7.63
2023-05-13T21:09:24.134Z,7.27
2023-05-13T21:11:53.508Z,7.13
2023-05-13T21:14:22.723Z,7.40
2023-05-13T21:16:51.120Z,7.70
2023-05-13T21:19:20.828Z,7.20
2023-05-13T21:21:48.857Z,7.47
2023-05-13T21:24:18.115Z,7.83
2023-05-13T21:26:46.241Z,7.40
2023-05-13T21:29:16.819Z,8.13
2023-05-13T21:31:46.881Z,7.87
2023-05-13T21:34:14.932Z,8.33
2023-05-13T21:36:42.946Z,8.70
2023-05-13T21:39:11.298Z,8.37
2023-05-13T21:41:39.998Z,8.30
2023-05-13T21:44:08.336Z,7.87
2023-05-13T21:46:38.535Z,8.30
2023-05-13T21:49:06.523Z,8.10
2023-05-13T21:51:34.559Z,8.47
2023-05-13T21:54:03.808Z,8.77
2023-05-13T21:56:32.246Z,8.80
2023-05-13T21:59:00.221Z,8.93
2023-05-13T22:01:28.544Z,9.80
2023-05-13T22:03:58.023Z,10.03
2023-05-13T22:06:26.231Z,9.47
2023-05-13T22:08:54.234Z,9.70
2023-05-13T22:11:22.225Z,9.77
2023-05-13T22:13:50.189Z,10.43
2023-05-13T22:16:18.306Z,9.83
2023-05-13T22:18:46.414Z,9.50
2023-05-13T22:21:15.827Z,9.90
2023-05-13T22:23:44.345Z,9.93
2023-05-13T22:26:12.368Z,10.47
2023-05-13T22:28:40.524Z,10.20
2023-05-13T22:31:08.597Z,10.07
2023-05-13T22:33:36.691Z,10.90
2023-05-13T22:36:05.286Z,12.03
2023-05-13T22:38:34.689Z,10.07
2023-05-13T22:41:02.826Z,10.70
2023-05-13T22:43:30.740Z,9.57
2023-05-13T22:45:58.779Z,10.00
2023-05-13T22:48:26.822Z,9.37
2023-05-13T22:50:56.968Z,9.60
2023-05-13T22:53:25.535Z,9.50
2023-05-13T22:55:54.949Z,9.33
2023-05-13T22:58:23.080Z,9.97
2023-05-13T23:00:51.098Z,9.90
2023-05-13T23:03:19.044Z,10.13
2023-05-13T23:05:47.089Z,10.87
2023-05-13T23:08:15.118Z,10.37
2023-05-13T23:10:43.149Z,9.67
2023-05-13T23:13:12.436Z,10.17
2023-05-13T23:15:40.514Z,9.77
2023-05-13T23:18:08.569Z,9.87
2023-05-13T23:20:36.531Z,9.33
2023-05-13T23:23:04.566Z,10.10
2023-05-13T23:25:32.923Z,8.97
2023-05-13T23:28:01.008Z,9.70
2023-05-13T23:30:30.351Z,9.37
2023-05-13T23:32:58.538Z,10.00
2023-05-13T23:35:26.629Z,9.93
2023-05-13T23:37:54.652Z,9.37
2023-05-13T23:40:22.838Z,9.63
2023-05-13T23:42:50.920Z,10.13
2023-05-13T23:45:18.996Z,9.47
2023-05-13T23:47:48.494Z,10.53
2023-05-13T23:50:16.562Z,10.27
2023-05-13T23:52:44.612Z,10.30
2023-05-13T23:55:12.651Z,10.37
2023-05-13T23:57:40.671Z,9.63
